createdAt,value
2017-10-19T00:00:58.494Z,8.20
2017-10-19T00:03:27.498Z,8.10
2017-10-19T00:05:56.601Z,8.10
2017-10-19T00:08:24.846Z,8.10
2017-10-19T00:10:53.097Z,8.10
2017-10-19T00:13:21.341Z,8.10
2017-10-19T00:15:49.590Z,8.20
2017-10-19T00:18:18.706Z,8.40
2017-10-19T00:20:46.954Z,8.40
2017-10-19T00:23:15.962Z,8.40
2017-10-19T00:25:44.973Z,8.30
2017-10-19T00:28:13.210Z,8.30
2017-10-19T00:30:41.457Z,8.30
2017-10-19T00:33:09.706Z,8.10
2017-10-19T00:35:37.957Z,8.00
2017-10-19T00:38:06.957Z,8.00
2017-10-19T00:40:35.209Z,8.00
2017-10-19T00:43:04.220Z,8.10
2017-10-19T00:45:32.470Z,8.10
2017-10-19T00:48:00.709Z,8.10
2017-10-19T00:50:28.958Z,8.00
2017-10-19T00:52:57.201Z,8.00
2017-10-19T00:55:26.223Z,7.90
2017-10-19T00:57:54.495Z,7.90
2017-10-19T01:00:22.748Z,7.90
2017-10-19T01:02:50.997Z,7.70
2017-10-19T02:19:57.954Z,7.00
2017-10-19T02:22:26.209Z,6.90
2017-10-19T02:24:54.448Z,6.90
2017-10-19T02:27:23.471Z,7.00
2017-10-19T02:29:51.725Z,7.00
2017-10-19T02:32:20.006Z,7.00
2017-10-19T02:34:48.262Z,7.00
2017-10-19T02:37:17.374Z,6.60
2017-10-19T02:39:45.618Z,6.50
2017-10-19T02:42:13.870Z,6.60
2017-10-19T02:44:42.109Z,6.60
2017-10-19T02:47:10.363Z,6.60
2017-10-19T02:49:39.373Z,6.70
2017-10-19T02:52:07.646Z,6.70
2017-10-19T02:54:35.892Z,6.70
2017-10-19T02:57:04.137Z,6.70
2017-10-19T02:59:32.382Z,6.70
2017-10-19T03:02:00.637Z,6.70
2017-10-19T03:04:28.882Z,6.70
2017-10-19T03:06:57.198Z,6.70
2017-10-19T03:09:25.442Z,6.60
2017-10-19T03:11:53.705Z,6.50
2017-10-19T03:14:21.952Z,6.60
2017-10-19T03:16:50.203Z,6.60
2017-10-19T03:19:18.446Z,6.60
2017-10-19T03:21:47.462Z,6.60
2017-10-19T03:24:15.709Z,6.60
2017-10-19T03:26:44.014Z,6.50
2017-10-19T03:29:12.261Z,6.50
2017-10-19T03:31:40.566Z,6.50
2017-10-19T03:34:08.811Z,6.50
2017-10-19T03:36:37.838Z,6.60
2017-10-19T03:39:06.088Z,6.50
2017-10-19T03:41:34.394Z,6.60
2017-10-19T03:44:02.633Z,6.70
2017-10-19T03:46:30.937Z,6.70
2017-10-19T03:48:59.185Z,6.80
2017-10-19T03:51:27.494Z,6.90
2017-10-19T03:53:55.738Z,6.90
2017-10-19T03:56:23.989Z,6.90
2017-10-19T03:58:52.237Z,6.90
2017-10-19T04:01:20.600Z,6.90
2017-10-19T04:03:48.844Z,6.90
2017-10-19T04:06:17.091Z,7.00
2017-10-19T04:08:45.332Z,7.10
2017-10-19T04:11:13.585Z,7.00
2017-10-19T04:13:42.607Z,6.80
2017-10-19T04:16:10.866Z,6.80
2017-10-19T04:18:39.116Z,6.70
2017-10-19T04:21:07.358Z,6.70
2017-10-19T04:23:35.606Z,6.70
2017-10-19T04:26:03.842Z,6.60
2017-10-19T04:28:32.863Z,6.50
2017-10-19T04:31:01.111Z,6.40
2017-10-19T04:33:30.122Z,6.40
2017-10-19T04:35:59.120Z,6.40
2017-10-19T04:38:27.378Z,6.30
2017-10-19T04:40:56.409Z,6.30
2017-10-19T04:43:24.628Z,6.20
2017-10-19T04:45:54.377Z,6.00
2017-10-19T04:48:22.625Z,5.90
2017-10-19T04:50:51.628Z,5.80
2017-10-19T04:53:20.650Z,5.80
2017-10-19T04:55:48.907Z,5.70
2017-10-19T04:58:17.153Z,5.80
2017-10-19T05:00:45.399Z,5.80
2017-10-19T05:03:13.651Z,5.80
2017-10-19T05:05:41.907Z,5.90
2017-10-19T05:08:10.155Z,6.00
2017-10-19T05:10:38.405Z,6.20
2017-10-19T05:13:06.655Z,6.20
2017-10-19T05:15:34.894Z,6.30
2017-10-19T05:18:04.004Z,6.30
2017-10-19T05:20:32.284Z,6.30
2017-10-19T05:23:00.531Z,6.40
2017-10-19T05:25:28.774Z,6.40
2017-10-19T05:27:57.122Z,6.40
2017-10-19T05:30:25.365Z,6.50
2017-10-19T05:32:54.385Z,6.50
2017-10-19T05:35:22.627Z,6.50
2017-10-19T05:37:50.881Z,6.60
2017-10-19T05:40:19.116Z,6.50
2017-10-19T05:42:47.374Z,6.50
2017-10-19T05:45:16.380Z,6.50
2017-10-19T05:47:44.650Z,6.50
2017-10-19T05:50:12.929Z,6.30
2017-10-19T05:52:41.189Z,6.30
2017-10-19T05:55:10.199Z,6.30
2017-10-19T05:57:38.455Z,6.20
2017-10-19T06:00:07.462Z,6.20
2017-10-19T06:02:35.734Z,6.20
2017-10-19T06:05:03.981Z,6.20
2017-10-19T06:07:32.239Z,6.20
2017-10-19T06:10:00.486Z,6.30
2017-10-19T06:12:28.738Z,6.40
2017-10-19T06:14:56.989Z,6.50
2017-10-19T06:17:34.015Z,6.50
2017-10-19T06:20:02.269Z,6.60
2017-10-19T06:22:30.528Z,6.80
2017-10-19T06:24:59.537Z,7.00
2017-10-19T06:27:27.794Z,7.00
2017-10-19T06:29:56.090Z,7.00
2017-10-19T06:32:24.363Z,7.10
2017-10-19T06:34:52.611Z,7.10
2017-10-19T06:37:20.860Z,7.10
2017-10-19T06:39:49.106Z,7.10
2017-10-19T06:42:17.369Z,7.20
2017-10-19T06:44:45.618Z,7.20
2017-10-19T06:47:13.866Z,7.20
2017-10-19T06:49:42.116Z,7.30
2017-10-19T06:52:10.368Z,7.30
2017-10-19T06:54:38.641Z,7.30
2017-10-19T06:57:06.918Z,7.40
2017-10-19T06:59:35.169Z,7.40
2017-10-19T07:02:04.194Z,7.40
2017-10-19T07:04:32.438Z,7.40
2017-10-19T07:07:01.468Z,7.60
2017-10-19T07:09:29.706Z,7.60
2017-10-19T07:11:57.961Z,7.90
2017-10-19T07:14:26.209Z,7.90
2017-10-19T07:16:54.480Z,8.00
2017-10-19T07:19:22.737Z,7.80
2017-10-19T07:21:50.982Z,7.70
2017-10-19T07:24:20.008Z,7.80
2017-10-19T07:26:48.242Z,7.80
2017-10-19T07:29:16.559Z,7.80
2017-10-19T07:31:44.806Z,7.80
2017-10-19T07:34:13.813Z,7.90
2017-10-19T07:36:42.061Z,7.90
2017-10-19T07:39:10.311Z,7.80
2017-10-19T07:41:38.550Z,7.90
2017-10-19T07:44:06.804Z,8.00
2017-10-19T07:46:35.806Z,8.30
2017-10-19T07:49:04.824Z,8.50
2017-10-19T07:51:33.080Z,8.50
2017-10-19T07:54:01.335Z,8.60
2017-10-19T07:56:30.337Z,8.50
2017-10-19T07:58:59.451Z,8.50
2017-10-19T08:01:27.719Z,8.40
2017-10-19T08:03:56.003Z,8.60
2017-10-19T08:06:24.250Z,8.70
2017-10-19T08:08:53.376Z,9.00
2017-10-19T08:11:21.626Z,9.00
2017-10-19T08:13:50.631Z,9.20
2017-10-19T08:16:18.877Z,9.20
2017-10-19T08:18:47.128Z,9.20
2017-10-19T08:21:15.365Z,9.20
2017-10-19T08:23:43.609Z,9.30
2017-10-19T08:26:12.621Z,9.00
2017-10-19T08:28:41.643Z,8.70
2017-10-19T08:31:09.881Z,8.70
2017-10-19T08:33:38.898Z,8.50
2017-10-19T08:36:07.138Z,8.40
2017-10-19T08:38:35.388Z,8.40
2017-10-19T08:41:03.631Z,8.50
2017-10-19T08:43:31.878Z,8.60
2017-10-19T08:46:00.120Z,8.60
2017-10-19T08:48:28.370Z,8.80
2017-10-19T08:50:56.613Z,9.10
2017-10-19T08:53:25.640Z,9.30
2017-10-19T08:55:53.887Z,9.20
2017-10-19T08:58:22.132Z,9.40
2017-10-19T09:00:51.148Z,9.60
2017-10-19T09:03:19.399Z,9.60
2017-10-19T09:05:48.413Z,10.00
2017-10-19T09:08:16.673Z,10.00
2017-10-19T09:10:45.687Z,10.30
2017-10-19T09:13:13.953Z,10.30
2017-10-19T09:15:42.968Z,10.10
2017-10-19T09:18:11.331Z,10.10
2017-10-19T09:20:39.581Z,10.10
2017-10-19T09:23:08.612Z,10.10
2017-10-19T09:25:36.862Z,10.10
2017-10-19T09:28:05.975Z,10.60
2017-10-19T09:30:34.222Z,10.50
2017-10-19T09:33:03.252Z,10.80
2017-10-19T09:35:31.513Z,10.80
2017-10-19T09:37:59.771Z,10.90
2017-10-19T09:40:28.890Z,11.00
2017-10-19T09:42:57.146Z,10.90
2017-10-19T09:45:26.168Z,11.00
2017-10-19T09:47:54.418Z,11.00
2017-10-19T09:50:23.437Z,11.10
2017-10-19T09:52:51.693Z,11.10
2017-10-19T09:55:19.946Z,11.00
2017-10-19T09:57:48.970Z,11.20
2017-10-19T10:00:17.222Z,11.20
2017-10-19T10:02:46.228Z,11.40
2017-10-19T10:05:14.483Z,11.40
2017-10-19T10:07:42.737Z,11.50
2017-10-19T10:10:10.989Z,11.60
2017-10-19T10:12:39.233Z,11.60
2017-10-19T10:15:07.486Z,11.60
2017-10-19T10:17:36.505Z,11.30
2017-10-19T10:20:04.765Z,11.30
2017-10-19T10:22:33.782Z,11.50
2017-10-19T10:25:02.047Z,11.50
2017-10-19T10:27:30.289Z,11.70
2017-10-19T10:29:59.310Z,12.10
2017-10-19T10:32:28.317Z,12.20
2017-10-19T10:34:56.579Z,12.20
2017-10-19T10:37:25.595Z,12.70
2017-10-19T10:39:53.854Z,12.70
2017-10-19T10:42:22.102Z,12.80
2017-10-19T10:44:50.358Z,12.80
2017-10-19T10:47:18.607Z,13.00
2017-10-19T10:49:46.859Z,13.00
2017-10-19T10:52:15.102Z,13.20
2017-10-19T10:54:43.356Z,13.60
2017-10-19T10:57:11.599Z,13.70
2017-10-19T10:59:39.852Z,14.10
2017-10-19T11:02:08.857Z,14.50
2017-10-19T11:04:37.125Z,14.50
2017-10-19T11:07:05.372Z,14.30
2017-10-19T11:09:33.630Z,14.40
2017-10-19T11:12:01.887Z,14.40
2017-10-19T11:14:30.230Z,14.70
2017-10-19T11:16:58.475Z,14.80
2017-10-19T11:19:26.721Z,15.10
2017-10-19T11:21:54.972Z,15.60
2017-10-19T11:24:23.218Z,16.20
2017-10-19T11:26:52.237Z,16.10
2017-10-19T11:29:20.477Z,16.00
2017-10-19T11:31:49.486Z,17.50
2017-10-19T11:34:17.753Z,17.40
2017-10-19T11:36:46.859Z,17.80
2017-10-19T11:39:15.110Z,17.80
2017-10-19T11:41:44.126Z,17.70
2017-10-19T11:44:12.415Z,17.80
2017-10-19T11:46:40.662Z,16.80
2017-10-19T11:49:09.689Z,16.80
2017-10-19T11:51:37.932Z,16.80
2017-10-19T11:54:06.942Z,18.30
2017-10-19T11:56:35.190Z,18.20
2017-10-19T11:59:03.444Z,17.90
2017-10-19T12:01:32.454Z,17.20
2017-10-19T12:04:00.707Z,17.10
2017-10-19T12:06:28.954Z,16.70
2017-10-19T12:08:57.213Z,16.30
2017-10-19T12:11:25.454Z,16.00
2017-10-19T12:13:54.278Z,16.00
2017-10-19T12:16:22.531Z,15.90
2017-10-19T12:18:51.546Z,16.00
2017-10-19T12:21:19.792Z,15.90
2017-10-19T12:23:48.813Z,16.90
2017-10-19T12:26:17.054Z,16.90
2017-10-19T12:28:45.302Z,18.50
2017-10-19T12:31:13.550Z,18.60
2017-10-19T12:33:41.802Z,18.10
2017-10-19T12:36:10.826Z,17.40
2017-10-19T12:38:39.078Z,17.40
2017-10-19T12:41:07.321Z,17.00
2017-10-19T12:43:35.578Z,17.10
2017-10-19T12:46:03.819Z,16.90
2017-10-19T12:48:32.074Z,17.60
2017-10-19T12:51:01.082Z,18.50
2017-10-19T12:53:29.355Z,18.40
2017-10-19T12:55:57.609Z,19.70
2017-10-19T12:58:26.618Z,20.30
2017-10-19T13:00:54.873Z,20.30
2017-10-19T13:03:23.887Z,21.10
2017-10-19T13:05:52.140Z,21.00
2017-10-19T13:08:21.157Z,21.40
2017-10-19T13:10:49.409Z,21.40
2017-10-19T13:13:18.426Z,22.60
2017-10-19T13:15:46.674Z,22.60
2017-10-19T13:18:15.686Z,22.70
2017-10-19T13:20:44.706Z,22.60
2017-10-19T13:23:12.953Z,22.60
2017-10-19T13:25:41.974Z,22.60
2017-10-19T13:28:10.221Z,22.60
2017-10-19T13:30:39.237Z,22.30
2017-10-19T13:33:07.483Z,22.30
2017-10-19T13:35:36.503Z,23.00
2017-10-19T13:38:04.754Z,23.00
2017-10-19T13:40:33.765Z,22.90
2017-10-19T13:43:02.019Z,22.90
2017-10-19T13:45:31.043Z,23.40
2017-10-19T13:47:59.286Z,23.40
2017-10-19T13:50:28.305Z,22.80
2017-10-19T13:52:56.550Z,22.70
2017-10-19T13:55:25.710Z,22.50
2017-10-19T13:57:53.963Z,22.30
2017-10-19T14:00:22.236Z,22.50
2017-10-19T14:02:50.482Z,22.10
2017-10-19T14:05:19.500Z,23.20
2017-10-19T14:07:47.749Z,23.20
2017-10-19T14:10:16.771Z,23.60
2017-10-19T14:12:45.014Z,23.50
2017-10-19T14:15:14.030Z,22.10
2017-10-19T14:17:42.273Z,22.10
2017-10-19T14:20:11.313Z,20.70
2017-10-19T14:22:39.554Z,20.70
2017-10-19T14:25:08.567Z,21.30
2017-10-19T14:27:36.826Z,21.30
2017-10-19T14:30:05.849Z,20.80
2017-10-19T14:32:34.097Z,20.80
2017-10-19T14:35:02.355Z,21.00
2017-10-19T14:37:30.602Z,21.90
2017-10-19T14:39:58.846Z,22.30
2017-10-19T14:42:27.111Z,22.20
2017-10-19T14:44:55.349Z,22.20
2017-10-19T14:47:23.609Z,22.50
2017-10-19T14:49:51.857Z,22.50
2017-10-19T14:52:20.315Z,23.00
2017-10-19T14:54:48.558Z,22.10
2017-10-19T14:57:16.800Z,22.00
2017-10-19T14:59:45.054Z,21.70
2017-10-19T15:02:13.302Z,21.90
2017-10-19T15:04:42.332Z,21.50
2017-10-19T15:07:10.575Z,21.50
2017-10-19T15:09:39.597Z,21.00
2017-10-19T15:12:07.846Z,20.90
2017-10-19T15:14:36.231Z,21.20
2017-10-19T15:17:04.483Z,21.10
2017-10-19T15:19:33.503Z,20.30
2017-10-19T15:22:01.757Z,20.30
2017-10-19T15:24:30.781Z,18.90
2017-10-19T15:26:59.027Z,18.80
2017-10-19T15:29:28.061Z,18.10
2017-10-19T15:31:56.315Z,18.00
2017-10-19T15:34:24.573Z,18.10
2017-10-19T15:36:53.582Z,18.00
2017-10-19T15:39:22.061Z,17.90
2017-10-19T15:41:50.311Z,17.80
2017-10-19T15:44:19.320Z,17.60
2017-10-19T15:46:47.579Z,17.60
2017-10-19T15:49:16.590Z,17.40
2017-10-19T15:51:44.845Z,17.40
2017-10-19T15:54:13.094Z,17.30
2017-10-19T15:56:41.357Z,17.30
2017-10-19T15:59:09.606Z,17.20
2017-10-19T16:01:37.859Z,17.10
2017-10-19T16:04:06.879Z,17.00
2017-10-19T16:06:35.128Z,17.00
2017-10-19T16:09:04.142Z,16.70
2017-10-19T16:11:32.401Z,16.60
2017-10-19T16:14:00.645Z,16.50
2017-10-19T16:16:29.669Z,16.30
2017-10-19T16:18:58.682Z,16.20
2017-10-19T16:21:26.928Z,16.20
2017-10-19T16:23:55.951Z,16.10
2017-10-19T16:26:24.203Z,16.10
2017-10-19T16:28:53.224Z,15.80
2017-10-19T16:31:21.474Z,15.80
2017-10-19T16:33:50.588Z,15.70
2017-10-19T16:36:18.826Z,15.60
2017-10-19T16:38:47.853Z,15.40
2017-10-19T16:41:16.092Z,15.40
2017-10-19T16:43:44.350Z,15.30
2017-10-19T16:46:12.597Z,15.20
2017-10-19T16:48:40.863Z,15.10
2017-10-19T16:51:09.118Z,15.10
2017-10-19T16:53:37.372Z,15.00
2017-10-19T16:56:06.394Z,14.80
2017-10-19T16:58:34.645Z,14.80
2017-10-19T17:01:03.667Z,14.70
2017-10-19T17:03:31.914Z,14.70
2017-10-19T17:06:00.939Z,14.70
2017-10-19T17:08:29.182Z,14.70
2017-10-19T17:10:58.210Z,14.60
2017-10-19T17:13:26.462Z,14.50
2017-10-19T17:15:54.765Z,14.50
2017-10-19T17:18:23.002Z,14.40
2017-10-19T17:20:52.025Z,14.30
2017-10-19T17:23:20.274Z,14.20
2017-10-19T17:25:49.299Z,14.10
2017-10-19T17:28:17.547Z,14.10
2017-10-19T17:30:46.567Z,14.10
2017-10-19T17:33:14.822Z,14.10
2017-10-19T17:35:43.086Z,14.10
2017-10-19T17:38:12.114Z,14.10
2017-10-19T17:40:40.579Z,14.00
2017-10-19T17:43:08.829Z,14.00
2017-10-19T17:45:37.848Z,14.00
2017-10-19T17:48:06.093Z,13.90
2017-10-19T17:50:34.354Z,13.90
2017-10-19T17:53:02.619Z,13.80
2017-10-19T17:55:30.868Z,13.80
2017-10-19T17:57:59.890Z,13.80
2017-10-19T18:00:28.134Z,13.70
2017-10-19T18:02:57.246Z,13.60
2017-10-19T18:05:25.494Z,13.60
2017-10-19T18:07:54.518Z,13.50
2017-10-19T18:10:22.767Z,13.50
2017-10-19T18:12:51.789Z,13.40
2017-10-19T18:15:20.047Z,13.40
2017-10-19T18:17:49.072Z,13.40
2017-10-19T18:20:17.318Z,13.40
2017-10-19T18:22:45.809Z,13.40
2017-10-19T18:25:14.057Z,13.40
2017-10-19T18:27:43.079Z,13.30
2017-10-19T18:30:11.337Z,13.30
2017-10-19T18:32:40.347Z,13.20
2017-10-19T18:35:08.605Z,13.20
2017-10-19T18:37:37.628Z,13.10
2017-10-19T18:40:05.883Z,13.10
2017-10-19T18:42:34.901Z,13.00
2017-10-19T18:45:03.163Z,13.00
2017-10-19T18:47:31.407Z,13.00
2017-10-19T18:49:59.663Z,13.00
2017-10-19T18:52:27.911Z,13.00
2017-10-19T18:54:56.166Z,13.00
2017-10-19T18:57:24.425Z,13.00
2017-10-19T18:59:53.433Z,13.00
2017-10-19T19:02:21.704Z,13.00
2017-10-19T19:04:49.957Z,13.00
2017-10-19T19:07:18.970Z,13.20
2017-10-19T19:09:47.235Z,13.20
2017-10-19T19:12:16.255Z,13.30
2017-10-19T19:14:44.515Z,13.30
2017-10-19T19:17:12.769Z,13.40
2017-10-19T19:19:41.785Z,13.50
2017-10-19T19:22:10.041Z,13.40
2017-10-19T19:24:39.257Z,13.60
2017-10-19T19:27:07.519Z,13.60
2017-10-19T19:29:36.530Z,13.70
2017-10-19T19:32:04.796Z,13.70
2017-10-19T19:34:33.802Z,13.70
2017-10-19T19:37:02.059Z,13.70
2017-10-19T19:39:31.084Z,13.70
2017-10-19T19:41:59.339Z,13.60
2017-10-19T19:44:27.589Z,13.50
2017-10-19T19:46:56.617Z,13.10
2017-10-19T19:49:24.871Z,13.10
2017-10-19T19:51:53.897Z,12.90
2017-10-19T19:54:22.146Z,12.90
2017-10-19T19:56:50.410Z,12.90
2017-10-19T19:59:19.423Z,12.90
2017-10-19T20:01:47.678Z,12.80
2017-10-19T20:04:16.701Z,12.80
2017-10-19T20:06:44.966Z,12.80
2017-10-19T20:09:13.218Z,12.80
2017-10-19T20:11:42.243Z,12.70
2017-10-19T20:14:10.495Z,12.70
2017-10-19T20:16:39.518Z,12.70
2017-10-19T20:19:07.770Z,12.70
2017-10-19T20:21:36.031Z,12.60
2017-10-19T20:24:05.043Z,12.60
2017-10-19T20:26:33.533Z,12.60
2017-10-19T20:29:01.777Z,12.50
2017-10-19T20:31:30.790Z,12.50
2017-10-19T20:33:59.047Z,12.50
2017-10-19T20:36:28.068Z,12.40
2017-10-19T20:38:56.343Z,12.40
2017-10-19T20:41:24.616Z,12.40
2017-10-19T20:43:53.244Z,12.30
2017-10-19T20:46:21.495Z,12.30
2017-10-19T20:48:50.075Z,12.30
2017-10-19T20:51:19.033Z,12.20
2017-10-19T20:53:47.528Z,12.10
2017-10-19T20:58:50.457Z,12.10
2017-10-19T21:01:18.756Z,12.10
2017-10-19T21:03:47.006Z,12.10
2017-10-19T21:06:15.258Z,12.10
2017-10-19T21:08:43.506Z,12.10
2017-10-19T21:11:12.629Z,12.10
2017-10-19T21:13:40.914Z,12.10
2017-10-19T21:16:09.158Z,12.10
2017-10-19T21:18:38.174Z,12.20
2017-10-19T21:21:06.434Z,12.20
2017-10-19T21:23:35.541Z,12.10
2017-10-19T21:26:03.802Z,12.10
2017-10-19T21:28:32.827Z,12.00
2017-10-19T21:31:01.085Z,12.00
2017-10-19T21:33:29.341Z,12.00
2017-10-19T21:35:58.356Z,11.80
2017-10-19T21:38:26.610Z,11.80
2017-10-19T21:40:55.635Z,11.90
2017-10-19T21:43:23.882Z,11.90
2017-10-19T21:45:52.902Z,11.90
2017-10-19T21:48:21.207Z,11.90
2017-10-19T21:50:49.461Z,12.00
2017-10-19T21:53:17.771Z,11.90
2017-10-19T21:55:46.790Z,12.00
2017-10-19T21:58:15.814Z,12.00
2017-10-19T22:00:44.071Z,12.00
2017-10-19T22:03:13.090Z,12.00
2017-10-19T22:05:41.357Z,12.00
2017-10-19T22:08:09.608Z,12.00
2017-10-19T22:10:38.621Z,11.90
2017-10-19T22:13:06.886Z,11.90
2017-10-19T22:15:35.897Z,11.80
2017-10-19T22:18:04.153Z,11.80
2017-10-19T22:20:33.289Z,11.70
2017-10-19T22:29:02.597Z,11.70
2017-10-19T22:31:30.859Z,11.60
2017-10-19T22:33:59.883Z,11.60
2017-10-19T22:36:28.143Z,11.60
2017-10-19T22:38:56.402Z,11.50
2017-10-19T22:41:25.514Z,11.50
2017-10-19T22:43:54.388Z,11.50
2017-10-19T22:46:23.403Z,11.50
2017-10-19T22:48:51.662Z,11.50
2017-10-19T22:51:20.678Z,11.40
2017-10-19T22:53:48.936Z,11.40
2017-10-19T22:56:17.188Z,11.40
2017-10-19T22:58:46.210Z,11.50
2017-10-19T23:01:14.462Z,11.50
2017-10-19T23:03:43.482Z,11.60
2017-10-19T23:06:11.732Z,11.60
2017-10-19T23:08:40.773Z,11.70
2017-10-19T23:11:09.029Z,11.70
2017-10-19T23:13:37.286Z,11.70
2017-10-19T23:16:06.307Z,11.70
2017-10-19T23:18:34.560Z,11.70
2017-10-19T23:21:03.582Z,11.60
2017-10-19T23:23:31.837Z,11.60
2017-10-19T23:26:00.089Z,11.60
2017-10-19T23:28:29.106Z,11.50
2017-10-19T23:30:57.365Z,11.50
2017-10-19T23:33:26.386Z,11.50
2017-10-19T23:35:54.646Z,11.50
2017-10-19T23:38:22.903Z,11.50
2017-10-19T23:40:51.921Z,11.60
2017-10-19T23:43:20.171Z,11.50
2017-10-19T23:45:49.193Z,11.50
2017-10-19T23:48:17.445Z,11.50
2017-10-19T23:50:46.474Z,11.60
2017-10-19T23:53:14.722Z,11.50
2017-10-19T23:55:43.106Z,11.50
2017-10-19T23:58:11.354Z,11.50
